sensor_id;sensor_type;location;lat;lon;timestamp;P1;durP1;ratioP1;P2;durP2;ratioP2
31206;SDS011;17834;52.992;8.856;2022-09-21T00:01:36;7.13;;;3.30;;
31206;SDS011;17834;52.992;8.856;2022-09-21T00:04:02;7.88;;;3.40;;
31206;SDS011;17834;52.992;8.856;2022-09-21T00:06:29;5.82;;;3.42;;
31206;SDS011;17834;52.992;8.856;2022-09-21T00:08:56;7.82;;;3.78;;
31206;SDS011;17834;52.992;8.856;2022-09-21T00:11:22;7.20;;;3.30;;
31206;SDS011;17834;52.992;8.856;2022-09-21T00:14:09;6.22;;;3.58;;
31206;SDS011;17834;52.992;8.856;2022-09-21T00:16:36;6.07;;;3.47;;
31206;SDS011;17834;52.992;8.856;2022-09-21T00:19:02;6.57;;;3.50;;
31206;SDS011;17834;52.992;8.856;2022-09-21T00:21:28;9.40;;;4.43;;
31206;SDS011;17834;52.992;8.856;2022-09-21T00:23:54;7.10;;;3.55;;
31206;SDS011;17834;52.992;8.856;2022-09-21T00:26:21;8.10;;;3.58;;
31206;SDS011;17834;52.992;8.856;2022-09-21T00:28:54;6.95;;;3.63;;
31206;SDS011;17834;52.992;8.856;2022-09-21T00:31:21;9.98;;;3.50;;
31206;SDS011;17834;52.992;8.856;2022-09-21T00:33:47;11.23;;;3.70;;
31206;SDS011;17834;52.992;8.856;2022-09-21T00:36:15;7.57;;;3.83;;
31206;SDS011;17834;52.992;8.856;2022-09-21T00:38:42;5.82;;;3.63;;
31206;SDS011;17834;52.992;8.856;2022-09-21T00:41:09;14.40;;;3.90;;
31206;SDS011;17834;52.992;8.856;2022-09-21T00:43:35;6.28;;;3.25;;
31206;SDS011;17834;52.992;8.856;2022-09-21T00:46:03;7.38;;;3.63;;
31206;SDS011;17834;52.992;8.856;2022-09-21T00:48:29;9.20;;;3.65;;
31206;SDS011;17834;52.992;8.856;2022-09-21T00:50:57;5.55;;;3.10;;
31206;SDS011;17834;52.992;8.856;2022-09-21T00:53:25;5.88;;;3.60;;
31206;SDS011;17834;52.992;8.856;2022-09-21T00:55:53;9.57;;;3.80;;
31206;SDS011;17834;52.992;8.856;2022-09-21T00:58:21;7.38;;;3.28;;
31206;SDS011;17834;52.992;8.856;2022-09-21T01:00:48;6.18;;;3.22;;
31206;SDS011;17834;52.992;8.856;2022-09-21T01:03:14;6.25;;;3.60;;
31206;SDS011;17834;52.992;8.856;2022-09-21T01:05:40;6.53;;;3.60;;
31206;SDS011;17834;52.992;8.856;2022-09-21T01:08:06;5.75;;;3.33;;
31206;SDS011;17834;52.992;8.856;2022-09-21T01:10:58;7.50;;;3.17;;
31206;SDS011;17834;52.992;8.856;2022-09-21T01:13:39;12.27;;;4.32;;
31206;SDS011;17834;52.992;8.856;2022-09-21T01:16:14;7.95;;;3.60;;
31206;SDS011;17834;52.992;8.856;2022-09-21T01:18:47;11.38;;;4.00;;
31206;SDS011;17834;52.992;8.856;2022-09-21T01:24:29;7.15;;;3.90;;
31206;SDS011;17834;52.992;8.856;2022-09-21T01:27:07;6.30;;;3.58;;
31206;SDS011;17834;52.992;8.856;2022-09-21T01:29:41;7.97;;;4.20;;
31206;SDS011;17834;52.992;8.856;2022-09-21T01:32:13;6.90;;;3.58;;
31206;SDS011;17834;52.992;8.856;2022-09-21T01:34:45;8.27;;;3.70;;
31206;SDS011;17834;52.992;8.856;2022-09-21T01:37:13;8.00;;;4.22;;
31206;SDS011;17834;52.992;8.856;2022-09-21T01:39:41;5.57;;;3.22;;
31206;SDS011;17834;52.992;8.856;2022-09-21T01:42:09;9.13;;;3.35;;
31206;SDS011;17834;52.992;8.856;2022-09-21T01:44:37;7.95;;;4.03;;
31206;SDS011;17834;52.992;8.856;2022-09-21T01:47:04;6.32;;;3.17;;
31206;SDS011;17834;52.992;8.856;2022-09-21T01:49:34;8.52;;;3.67;;
31206;SDS011;17834;52.992;8.856;2022-09-21T01:52:04;6.85;;;3.38;;
31206;SDS011;17834;52.992;8.856;2022-09-21T01:54:38;5.82;;;3.63;;
31206;SDS011;17834;52.992;8.856;2022-09-21T01:57:06;6.88;;;3.08;;
31206;SDS011;17834;52.992;8.856;2022-09-21T01:59:36;8.88;;;3.40;;
31206;SDS011;17834;52.992;8.856;2022-09-21T02:02:14;8.95;;;3.20;;
31206;SDS011;17834;52.992;8.856;2022-09-21T02:04:41;5.47;;;3.20;;
31206;SDS011;17834;52.992;8.856;2022-09-21T02:07:07;6.35;;;3.40;;
31206;SDS011;17834;52.992;8.856;2022-09-21T02:09:34;6.10;;;3.78;;
31206;SDS011;17834;52.992;8.856;2022-09-21T02:12:01;6.18;;;3.20;;
31206;SDS011;17834;52.992;8.856;2022-09-21T02:14:27;8.20;;;3.40;;
31206;SDS011;17834;52.992;8.856;2022-09-21T02:22:14;7.15;;;3.53;;
31206;SDS011;17834;52.992;8.856;2022-09-21T02:24:50;5.50;;;3.45;;
31206;SDS011;17834;52.992;8.856;2022-09-21T02:30:08;4.72;;;3.33;;
31206;SDS011;17834;52.992;8.856;2022-09-21T02:37:58;11.23;;;3.67;;
31206;SDS011;17834;52.992;8.856;2022-09-21T02:40:32;6.53;;;3.58;;
31206;SDS011;17834;52.992;8.856;2022-09-21T02:43:01;6.78;;;3.50;;
31206;SDS011;17834;52.992;8.856;2022-09-21T02:45:32;7.72;;;3.85;;
31206;SDS011;17834;52.992;8.856;2022-09-21T02:48:20;7.18;;;3.58;;
31206;SDS011;17834;52.992;8.856;2022-09-21T02:50:49;8.95;;;3.55;;
31206;SDS011;17834;52.992;8.856;2022-09-21T02:53:26;7.28;;;4.03;;
31206;SDS011;17834;52.992;8.856;2022-09-21T02:55:54;5.75;;;3.45;;
31206;SDS011;17834;52.992;8.856;2022-09-21T02:58:21;5.70;;;3.45;;
31206;SDS011;17834;52.992;8.856;2022-09-21T03:00:48;7.65;;;3.00;;
31206;SDS011;17834;52.992;8.856;2022-09-21T03:03:24;7.72;;;3.50;;
31206;SDS011;17834;52.992;8.856;2022-09-21T03:05:51;6.57;;;3.75;;
31206;SDS011;17834;52.992;8.856;2022-09-21T03:08:17;6.40;;;3.45;;
31206;SDS011;17834;52.992;8.856;2022-09-21T03:10:43;6.80;;;3.83;;
31206;SDS011;17834;52.992;8.856;2022-09-21T03:13:10;8.68;;;4.45;;
31206;SDS011;17834;52.992;8.856;2022-09-21T03:15:37;5.68;;;3.67;;
31206;SDS011;17834;52.992;8.856;2022-09-21T03:18:04;7.18;;;3.97;;
31206;SDS011;17834;52.992;8.856;2022-09-21T03:20:33;8.90;;;4.07;;
31206;SDS011;17834;52.992;8.856;2022-09-21T03:22:59;6.85;;;3.95;;
31206;SDS011;17834;52.992;8.856;2022-09-21T03:25:26;6.80;;;3.53;;
31206;SDS011;17834;52.992;8.856;2022-09-21T03:27:51;5.28;;;3.42;;
31206;SDS011;17834;52.992;8.856;2022-09-21T03:30:20;6.03;;;3.05;;
31206;SDS011;17834;52.992;8.856;2022-09-21T03:32:52;6.78;;;3.45;;
31206;SDS011;17834;52.992;8.856;2022-09-21T03:35:19;10.23;;;4.35;;
31206;SDS011;17834;52.992;8.856;2022-09-21T03:37:46;8.63;;;4.15;;
31206;SDS011;17834;52.992;8.856;2022-09-21T03:40:12;5.93;;;3.30;;
31206;SDS011;17834;52.992;8.856;2022-09-21T03:42:42;9.13;;;4.40;;
31206;SDS011;17834;52.992;8.856;2022-09-21T03:45:08;8.32;;;3.92;;
31206;SDS011;17834;52.992;8.856;2022-09-21T03:47:35;10.05;;;3.92;;
31206;SDS011;17834;52.992;8.856;2022-09-21T03:50:01;6.25;;;3.50;;
31206;SDS011;17834;52.992;8.856;2022-09-21T03:52:27;7.03;;;4.00;;
31206;SDS011;17834;52.992;8.856;2022-09-21T03:54:53;6.30;;;3.30;;
31206;SDS011;17834;52.992;8.856;2022-09-21T03:57:19;7.30;;;3.80;;
31206;SDS011;17834;52.992;8.856;2022-09-21T03:59:45;8.10;;;3.85;;
31206;SDS011;17834;52.992;8.856;2022-09-21T04:02:12;7.68;;;4.03;;
31206;SDS011;17834;52.992;8.856;2022-09-21T04:04:38;9.52;;;3.97;;
31206;SDS011;17834;52.992;8.856;2022-09-21T04:07:03;8.93;;;4.00;;
31206;SDS011;17834;52.992;8.856;2022-09-21T04:09:29;6.32;;;3.70;;
31206;SDS011;17834;52.992;8.856;2022-09-21T04:11:56;6.28;;;3.60;;
31206;SDS011;17834;52.992;8.856;2022-09-21T04:14:22;7.47;;;3.30;;
31206;SDS011;17834;52.992;8.856;2022-09-21T04:16:48;6.53;;;3.42;;
31206;SDS011;17834;52.992;8.856;2022-09-21T04:19:15;7.13;;;3.45;;
31206;SDS011;17834;52.992;8.856;2022-09-21T04:21:41;5.35;;;3.55;;
31206;SDS011;17834;52.992;8.856;2022-09-21T04:24:07;6.85;;;3.92;;
31206;SDS011;17834;52.992;8.856;2022-09-21T04:26:33;5.68;;;3.90;;
31206;SDS011;17834;52.992;8.856;2022-09-21T04:29:00;9.32;;;3.97;;
31206;SDS011;17834;52.992;8.856;2022-09-21T04:31:26;7.28;;;3.63;;
31206;SDS011;17834;52.992;8.856;2022-09-21T04:33:53;8.50;;;4.18;;
31206;SDS011;17834;52.992;8.856;2022-09-21T04:36:20;9.57;;;4.10;;
31206;SDS011;17834;52.992;8.856;2022-09-21T04:38:47;9.00;;;4.45;;
31206;SDS011;17834;52.992;8.856;2022-09-21T04:41:13;9.10;;;3.95;;
31206;SDS011;17834;52.992;8.856;2022-09-21T04:43:43;7.90;;;4.05;;
31206;SDS011;17834;52.992;8.856;2022-09-21T04:46:10;7.50;;;4.70;;
31206;SDS011;17834;52.992;8.856;2022-09-21T04:48:37;11.55;;;4.18;;
31206;SDS011;17834;52.992;8.856;2022-09-21T04:51:03;8.35;;;3.53;;
31206;SDS011;17834;52.992;8.856;2022-09-21T04:53:31;9.15;;;3.90;;
31206;SDS011;17834;52.992;8.856;2022-09-21T04:55:57;7.68;;;3.80;;
31206;SDS011;17834;52.992;8.856;2022-09-21T04:58:23;6.70;;;3.72;;
31206;SDS011;17834;52.992;8.856;2022-09-21T05:00:50;7.35;;;4.03;;
31206;SDS011;17834;52.992;8.856;2022-09-21T05:03:16;9.43;;;4.63;;
31206;SDS011;17834;52.992;8.856;2022-09-21T05:05:49;10.52;;;4.07;;
31206;SDS011;17834;52.992;8.856;2022-09-21T05:08:16;9.20;;;4.47;;
31206;SDS011;17834;52.992;8.856;2022-09-21T05:13:28;11.15;;;4.80;;
31206;SDS011;17834;52.992;8.856;2022-09-21T05:15:54;8.00;;;4.35;;
31206;SDS011;17834;52.992;8.856;2022-09-21T05:18:20;8.18;;;3.67;;
31206;SDS011;17834;52.992;8.856;2022-09-21T05:20:56;12.18;;;4.82;;
31206;SDS011;17834;52.992;8.856;2022-09-21T05:23:22;7.95;;;4.72;;
31206;SDS011;17834;52.992;8.856;2022-09-21T05:25:49;8.75;;;4.65;;
31206;SDS011;17834;52.992;8.856;2022-09-21T05:28:15;6.50;;;4.05;;
31206;SDS011;17834;52.992;8.856;2022-09-21T05:30:43;10.75;;;5.22;;
31206;SDS011;17834;52.992;8.856;2022-09-21T05:33:09;9.25;;;5.35;;
31206;SDS011;17834;52.992;8.856;2022-09-21T05:35:53;10.25;;;4.90;;
31206;SDS011;17834;52.992;8.856;2022-09-21T05:38:23;10.07;;;5.53;;
31206;SDS011;17834;52.992;8.856;2022-09-21T05:40:49;7.85;;;3.95;;
31206;SDS011;17834;52.992;8.856;2022-09-21T05:43:17;9.88;;;4.63;;
31206;SDS011;17834;52.992;8.856;2022-09-21T05:45:44;9.90;;;4.80;;
31206;SDS011;17834;52.992;8.856;2022-09-21T05:50:39;12.07;;;5.85;;
31206;SDS011;17834;52.992;8.856;2022-09-21T05:53:24;10.43;;;5.20;;
31206;SDS011;17834;52.992;8.856;2022-09-21T06:03:36;13.32;;;6.25;;
31206;SDS011;17834;52.992;8.856;2022-09-21T06:06:03;10.68;;;5.55;;
31206;SDS011;17834;52.992;8.856;2022-09-21T06:08:29;10.80;;;5.72;;
31206;SDS011;17834;52.992;8.856;2022-09-21T06:10:55;16.35;;;7.05;;
31206;SDS011;17834;52.992;8.856;2022-09-21T06:13:21;16.63;;;7.22;;
31206;SDS011;17834;52.992;8.856;2022-09-21T06:15:47;12.57;;;6.18;;
31206;SDS011;17834;52.992;8.856;2022-09-21T06:18:13;12.38;;;6.63;;
31206;SDS011;17834;52.992;8.856;2022-09-21T06:20:39;12.02;;;6.75;;
31206;SDS011;17834;52.992;8.856;2022-09-21T06:23:09;10.52;;;6.00;;
31206;SDS011;17834;52.992;8.856;2022-09-21T06:25:36;15.43;;;6.72;;
31206;SDS011;17834;52.992;8.856;2022-09-21T06:28:03;12.93;;;6.07;;
31206;SDS011;17834;52.992;8.856;2022-09-21T06:30:29;12.38;;;6.30;;
31206;SDS011;17834;52.992;8.856;2022-09-21T06:32:57;11.63;;;6.18;;
31206;SDS011;17834;52.992;8.856;2022-09-21T06:35:24;13.05;;;6.70;;
31206;SDS011;17834;52.992;8.856;2022-09-21T06:37:50;13.30;;;7.28;;
31206;SDS011;17834;52.992;8.856;2022-09-21T06:40:16;17.60;;;7.30;;
31206;SDS011;17834;52.992;8.856;2022-09-21T06:42:42;15.05;;;6.85;;
31206;SDS011;17834;52.992;8.856;2022-09-21T06:45:08;15.63;;;7.38;;
31206;SDS011;17834;52.992;8.856;2022-09-21T06:47:34;14.88;;;7.03;;
31206;SDS011;17834;52.992;8.856;2022-09-21T06:50:00;15.30;;;7.82;;
31206;SDS011;17834;52.992;8.856;2022-09-21T06:52:27;13.73;;;6.78;;
31206;SDS011;17834;52.992;8.856;2022-09-21T06:54:53;14.48;;;7.38;;
31206;SDS011;17834;52.992;8.856;2022-09-21T06:57:19;14.27;;;6.85;;
31206;SDS011;17834;52.992;8.856;2022-09-21T06:59:45;15.95;;;8.30;;
31206;SDS011;17834;52.992;8.856;2022-09-21T07:02:11;15.13;;;6.55;;
31206;SDS011;17834;52.992;8.856;2022-09-21T07:04:37;15.82;;;7.75;;
31206;SDS011;17834;52.992;8.856;2022-09-21T07:07:02;16.48;;;7.15;;
31206;SDS011;17834;52.992;8.856;2022-09-21T07:09:29;20.60;;;8.32;;
31206;SDS011;17834;52.992;8.856;2022-09-21T07:11:56;16.48;;;7.03;;
31206;SDS011;17834;52.992;8.856;2022-09-21T07:14:22;15.93;;;9.05;;
31206;SDS011;17834;52.992;8.856;2022-09-21T07:16:48;20.10;;;7.95;;
31206;SDS011;17834;52.992;8.856;2022-09-21T07:19:14;17.00;;;8.10;;
31206;SDS011;17834;52.992;8.856;2022-09-21T07:21:40;20.55;;;7.70;;
31206;SDS011;17834;52.992;8.856;2022-09-21T07:24:06;12.13;;;7.43;;
31206;SDS011;17834;52.992;8.856;2022-09-21T07:26:32;14.32;;;7.20;;
31206;SDS011;17834;52.992;8.856;2022-09-21T07:28:58;19.60;;;7.90;;
31206;SDS011;17834;52.992;8.856;2022-09-21T07:31:24;14.13;;;7.00;;
31206;SDS011;17834;52.992;8.856;2022-09-21T07:33:54;15.13;;;6.78;;
31206;SDS011;17834;52.992;8.856;2022-09-21T07:36:20;22.75;;;7.15;;
31206;SDS011;17834;52.992;8.856;2022-09-21T07:38:46;20.38;;;7.13;;
31206;SDS011;17834;52.992;8.856;2022-09-21T07:41:12;14.10;;;5.25;;
31206;SDS011;17834;52.992;8.856;2022-09-21T07:43:39;15.98;;;6.32;;
31206;SDS011;17834;52.992;8.856;2022-09-21T07:46:06;17.20;;;6.18;;
31206;SDS011;17834;52.992;8.856;2022-09-21T07:48:32;19.90;;;6.65;;
31206;SDS011;17834;52.992;8.856;2022-09-21T07:51:02;14.10;;;5.90;;
31206;SDS011;17834;52.992;8.856;2022-09-21T07:53:35;16.15;;;6.50;;
31206;SDS011;17834;52.992;8.856;2022-09-21T07:56:02;12.00;;;5.75;;
31206;SDS011;17834;52.992;8.856;2022-09-21T07:58:28;15.57;;;6.57;;
31206;SDS011;17834;52.992;8.856;2022-09-21T08:01:13;14.70;;;5.75;;
31206;SDS011;17834;52.992;8.856;2022-09-21T08:03:39;13.20;;;5.03;;
31206;SDS011;17834;52.992;8.856;2022-09-21T08:06:05;19.17;;;6.38;;
31206;SDS011;17834;52.992;8.856;2022-09-21T08:08:31;18.33;;;6.60;;
31206;SDS011;17834;52.992;8.856;2022-09-21T08:11:04;17.35;;;5.93;;
31206;SDS011;17834;52.992;8.856;2022-09-21T08:13:30;13.60;;;5.25;;
31206;SDS011;17834;52.992;8.856;2022-09-21T08:15:56;12.10;;;5.00;;
31206;SDS011;17834;52.992;8.856;2022-09-21T08:18:22;8.85;;;4.57;;
31206;SDS011;17834;52.992;8.856;2022-09-21T08:20:55;14.30;;;5.97;;
31206;SDS011;17834;52.992;8.856;2022-09-21T08:23:22;14.73;;;5.85;;
31206;SDS011;17834;52.992;8.856;2022-09-21T08:25:48;9.90;;;3.92;;
31206;SDS011;17834;52.992;8.856;2022-09-21T08:28:14;16.67;;;5.53;;
31206;SDS011;17834;52.992;8.856;2022-09-21T08:30:40;9.30;;;4.05;;
31206;SDS011;17834;52.992;8.856;2022-09-21T08:33:07;12.70;;;4.57;;
31206;SDS011;17834;52.992;8.856;2022-09-21T08:35:33;13.35;;;3.75;;
31206;SDS011;17834;52.992;8.856;2022-09-21T08:37:59;9.35;;;3.03;;
31206;SDS011;17834;52.992;8.856;2022-09-21T08:40:25;12.02;;;3.15;;
31206;SDS011;17834;52.992;8.856;2022-09-21T08:42:54;7.20;;;2.63;;
31206;SDS011;17834;52.992;8.856;2022-09-21T08:45:21;19.15;;;4.43;;
31206;SDS011;17834;52.992;8.856;2022-09-21T08:47:54;10.35;;;3.30;;
31206;SDS011;17834;52.992;8.856;2022-09-21T08:52:48;12.07;;;3.30;;
31206;SDS011;17834;52.992;8.856;2022-09-21T08:55:15;9.05;;;2.28;;
31206;SDS011;17834;52.992;8.856;2022-09-21T08:57:42;11.80;;;2.70;;
31206;SDS011;17834;52.992;8.856;2022-09-21T09:00:15;7.05;;;1.98;;
31206;SDS011;17834;52.992;8.856;2022-09-21T09:05:20;5.97;;;1.70;;
31206;SDS011;17834;52.992;8.856;2022-09-21T09:13:13;4.68;;;1.40;;
31206;SDS011;17834;52.992;8.856;2022-09-21T09:20:35;4.40;;;1.20;;
31206;SDS011;17834;52.992;8.856;2022-09-21T09:23:08;5.47;;;1.10;;
31206;SDS011;17834;52.992;8.856;2022-09-21T09:25:40;5.53;;;1.02;;
31206;SDS011;17834;52.992;8.856;2022-09-21T09:28:28;12.25;;;1.60;;
31206;SDS011;17834;52.992;8.856;2022-09-21T09:30:56;10.30;;;1.00;;
31206;SDS011;17834;52.992;8.856;2022-09-21T09:33:24;5.97;;;1.15;;
31206;SDS011;17834;52.992;8.856;2022-09-21T09:35:51;6.43;;;1.45;;
31206;SDS011;17834;52.992;8.856;2022-09-21T09:44:02;3.45;;;1.48;;
31206;SDS011;17834;52.992;8.856;2022-09-21T09:46:54;5.70;;;1.20;;
31206;SDS011;17834;52.992;8.856;2022-09-21T09:51:48;7.10;;;0.98;;
31206;SDS011;17834;52.992;8.856;2022-09-21T09:54:15;7.43;;;1.45;;
31206;SDS011;17834;52.992;8.856;2022-09-21T09:56:42;5.18;;;0.90;;
31206;SDS011;17834;52.992;8.856;2022-09-21T09:59:21;3.10;;;0.75;;
31206;SDS011;17834;52.992;8.856;2022-09-21T10:01:57;3.97;;;1.05;;
31206;SDS011;17834;52.992;8.856;2022-09-21T10:04:23;2.88;;;0.90;;
31206;SDS011;17834;52.992;8.856;2022-09-21T10:06:49;4.70;;;0.93;;
31206;SDS011;17834;52.992;8.856;2022-09-21T10:09:21;2.95;;;1.30;;
31206;SDS011;17834;52.992;8.856;2022-09-21T10:11:48;5.75;;;1.00;;
31206;SDS011;17834;52.992;8.856;2022-09-21T10:14:18;2.53;;;0.60;;
31206;SDS011;17834;52.992;8.856;2022-09-21T10:16:45;5.88;;;0.80;;
31206;SDS011;17834;52.992;8.856;2022-09-21T10:19:14;5.00;;;0.65;;
31206;SDS011;17834;52.992;8.856;2022-09-21T10:21:40;3.15;;;0.95;;
31206;SDS011;17834;52.992;8.856;2022-09-21T10:24:19;4.18;;;0.80;;
31206;SDS011;17834;52.992;8.856;2022-09-21T10:26:48;4.05;;;1.17;;
31206;SDS011;17834;52.992;8.856;2022-09-21T10:31:52;2.67;;;0.55;;
31206;SDS011;17834;52.992;8.856;2022-09-21T10:34:20;3.15;;;0.68;;
31206;SDS011;17834;52.992;8.856;2022-09-21T10:36:50;5.80;;;0.77;;
31206;SDS011;17834;52.992;8.856;2022-09-21T10:39:17;2.22;;;0.85;;
31206;SDS011;17834;52.992;8.856;2022-09-21T10:41:47;3.65;;;0.73;;
31206;SDS011;17834;52.992;8.856;2022-09-21T10:44:17;4.32;;;1.63;;
31206;SDS011;17834;52.992;8.856;2022-09-21T10:46:44;4.28;;;0.98;;
31206;SDS011;17834;52.992;8.856;2022-09-21T10:49:12;3.67;;;0.75;;
31206;SDS011;17834;52.992;8.856;2022-09-21T10:51:40;5.20;;;0.77;;
31206;SDS011;17834;52.992;8.856;2022-09-21T10:54:09;4.03;;;0.75;;
31206;SDS011;17834;52.992;8.856;2022-09-21T10:56:35;7.63;;;0.80;;
31206;SDS011;17834;52.992;8.856;2022-09-21T10:59:08;1.90;;;0.73;;
31206;SDS011;17834;52.992;8.856;2022-09-21T11:01:39;1.90;;;0.70;;
31206;SDS011;17834;52.992;8.856;2022-09-21T11:04:07;3.92;;;0.73;;
31206;SDS011;17834;52.992;8.856;2022-09-21T11:06:37;7.53;;;1.67;;
31206;SDS011;17834;52.992;8.856;2022-09-21T11:11:45;2.30;;;0.73;;
31206;SDS011;17834;52.992;8.856;2022-09-21T11:17:10;3.25;;;0.60;;
31206;SDS011;17834;52.992;8.856;2022-09-21T11:22:17;4.20;;;0.47;;
31206;SDS011;17834;52.992;8.856;2022-09-21T11:24:59;2.83;;;0.60;;
31206;SDS011;17834;52.992;8.856;2022-09-21T11:27:32;2.63;;;0.95;;
31206;SDS011;17834;52.992;8.856;2022-09-21T11:30:02;5.68;;;0.70;;
31206;SDS011;17834;52.992;8.856;2022-09-21T11:32:48;3.22;;;0.50;;
31206;SDS011;17834;52.992;8.856;2022-09-21T11:35:32;7.18;;;0.80;;
31206;SDS011;17834;52.992;8.856;2022-09-21T11:40:36;3.28;;;1.00;;
31206;SDS011;17834;52.992;8.856;2022-09-21T11:51:03;3.08;;;0.52;;
31206;SDS011;17834;52.992;8.856;2022-09-21T12:04:02;3.80;;;0.50;;
31206;SDS011;17834;52.992;8.856;2022-09-21T12:06:41;2.65;;;0.55;;
31206;SDS011;17834;52.992;8.856;2022-09-21T12:09:18;2.53;;;0.70;;
31206;SDS011;17834;52.992;8.856;2022-09-21T12:12:07;5.20;;;0.88;;
31206;SDS011;17834;52.992;8.856;2022-09-21T12:17:25;3.72;;;0.55;;
31206;SDS011;17834;52.992;8.856;2022-09-21T12:19:55;4.38;;;0.47;;
31206;SDS011;17834;52.992;8.856;2022-09-21T12:24:52;4.60;;;0.90;;
31206;SDS011;17834;52.992;8.856;2022-09-21T12:29:50;2.25;;;0.45;;
31206;SDS011;17834;52.992;8.856;2022-09-21T12:32:20;1.73;;;0.40;;
31206;SDS011;17834;52.992;8.856;2022-09-21T12:34:49;3.05;;;0.40;;
31206;SDS011;17834;52.992;8.856;2022-09-21T12:37:32;4.68;;;0.40;;
31206;SDS011;17834;52.992;8.856;2022-09-21T12:40:16;6.20;;;0.68;;
31206;SDS011;17834;52.992;8.856;2022-09-21T12:42:47;1.60;;;0.38;;
31206;SDS011;17834;52.992;8.856;2022-09-21T12:45:21;1.27;;;0.30;;
31206;SDS011;17834;52.992;8.856;2022-09-21T12:47:54;0.85;;;0.28;;
31206;SDS011;17834;52.992;8.856;2022-09-21T12:52:48;5.60;;;0.50;;
31206;SDS011;17834;52.992;8.856;2022-09-21T12:55:21;3.20;;;0.52;;
31206;SDS011;17834;52.992;8.856;2022-09-21T12:58:06;2.40;;;0.60;;
31206;SDS011;17834;52.992;8.856;2022-09-21T13:00:36;5.07;;;0.70;;
31206;SDS011;17834;52.992;8.856;2022-09-21T13:03:17;2.17;;;0.40;;
31206;SDS011;17834;52.992;8.856;2022-09-21T13:08:31;1.30;;;0.38;;
31206;SDS011;17834;52.992;8.856;2022-09-21T13:11:00;5.18;;;0.50;;
31206;SDS011;17834;52.992;8.856;2022-09-21T13:16:29;4.40;;;0.45;;
31206;SDS011;17834;52.992;8.856;2022-09-21T13:18:59;2.22;;;0.40;;
31206;SDS011;17834;52.992;8.856;2022-09-21T13:21:26;1.75;;;0.50;;
31206;SDS011;17834;52.992;8.856;2022-09-21T13:24:05;2.28;;;0.57;;
31206;SDS011;17834;52.992;8.856;2022-09-21T13:26:42;6.47;;;0.65;;
31206;SDS011;17834;52.992;8.856;2022-09-21T13:34:25;1.15;;;0.40;;
31206;SDS011;17834;52.992;8.856;2022-09-21T13:44:53;4.57;;;0.50;;
31206;SDS011;17834;52.992;8.856;2022-09-21T13:47:38;3.63;;;0.50;;
31206;SDS011;17834;52.992;8.856;2022-09-21T13:52:44;3.42;;;0.30;;
31206;SDS011;17834;52.992;8.856;2022-09-21T13:55:33;2.53;;;0.40;;
31206;SDS011;17834;52.992;8.856;2022-09-21T13:58:32;2.80;;;0.90;;
31206;SDS011;17834;52.992;8.856;2022-09-21T14:00:51;0.40;;;0.20;;
31206;SDS011;17834;52.992;8.856;2022-09-21T14:03:22;2.40;;;0.40;;
31206;SDS011;17834;52.992;8.856;2022-09-21T14:05:50;1.80;;;0.47;;
31206;SDS011;17834;52.992;8.856;2022-09-21T14:08:21;2.58;;;0.50;;
31206;SDS011;17834;52.992;8.856;2022-09-21T14:10:49;2.40;;;0.50;;
31206;SDS011;17834;52.992;8.856;2022-09-21T14:13:27;2.70;;;0.40;;
31206;SDS011;17834;52.992;8.856;2022-09-21T14:15:54;4.38;;;0.68;;
31206;SDS011;17834;52.992;8.856;2022-09-21T14:18:40;2.05;;;0.52;;
31206;SDS011;17834;52.992;8.856;2022-09-21T14:21:13;3.85;;;0.50;;
31206;SDS011;17834;52.992;8.856;2022-09-21T14:23:41;1.67;;;0.40;;
31206;SDS011;17834;52.992;8.856;2022-09-21T14:26:32;5.85;;;0.60;;
31206;SDS011;17834;52.992;8.856;2022-09-21T14:29:04;2.53;;;0.38;;
31206;SDS011;17834;52.992;8.856;2022-09-21T14:31:33;0.77;;;0.20;;
31206;SDS011;17834;52.992;8.856;2022-09-21T14:34:02;3.33;;;0.63;;
31206;SDS011;17834;52.992;8.856;2022-09-21T14:36:35;3.67;;;0.40;;
31206;SDS011;17834;52.992;8.856;2022-09-21T14:39:06;1.92;;;0.47;;
31206;SDS011;17834;52.992;8.856;2022-09-21T14:41:40;2.42;;;0.70;;
31206;SDS011;17834;52.992;8.856;2022-09-21T14:44:11;2.72;;;0.60;;
31206;SDS011;17834;52.992;8.856;2022-09-21T14:54:34;2.33;;;0.30;;
31206;SDS011;17834;52.992;8.856;2022-09-21T14:57:17;0.93;;;0.33;;
31206;SDS011;17834;52.992;8.856;2022-09-21T15:00:09;2.10;;;0.30;;
31206;SDS011;17834;52.992;8.856;2022-09-21T15:02:45;6.40;;;0.57;;
31206;SDS011;17834;52.992;8.856;2022-09-21T15:05:14;3.35;;;0.63;;
31206;SDS011;17834;52.992;8.856;2022-09-21T15:07:48;3.50;;;0.60;;
31206;SDS011;17834;52.992;8.856;2022-09-21T15:10:36;1.83;;;0.50;;
31206;SDS011;17834;52.992;8.856;2022-09-21T15:13:29;0.93;;;0.40;;
31206;SDS011;17834;52.992;8.856;2022-09-21T15:16:16;3.03;;;0.60;;
31206;SDS011;17834;52.992;8.856;2022-09-21T15:18:45;3.47;;;0.60;;
31206;SDS011;17834;52.992;8.856;2022-09-21T15:23:50;2.60;;;0.57;;
31206;SDS011;17834;52.992;8.856;2022-09-21T15:26:26;1.23;;;0.47;;
31206;SDS011;17834;52.992;8.856;2022-09-21T15:28:57;4.88;;;0.93;;
31206;SDS011;17834;52.992;8.856;2022-09-21T15:31:23;3.17;;;0.50;;
31206;SDS011;17834;52.992;8.856;2022-09-21T15:33:50;2.83;;;0.75;;
31206;SDS011;17834;52.992;8.856;2022-09-21T15:36:25;2.72;;;0.32;;
31206;SDS011;17834;52.992;8.856;2022-09-21T15:38:52;2.58;;;0.50;;
31206;SDS011;17834;52.992;8.856;2022-09-21T15:44:14;2.22;;;0.40;;
31206;SDS011;17834;52.992;8.856;2022-09-21T15:46:42;1.83;;;0.60;;
31206;SDS011;17834;52.992;8.856;2022-09-21T15:49:12;1.95;;;0.47;;
31206;SDS011;17834;52.992;8.856;2022-09-21T15:51:40;0.77;;;0.30;;
31206;SDS011;17834;52.992;8.856;2022-09-21T15:56:55;2.25;;;0.40;;
31206;SDS011;17834;52.992;8.856;2022-09-21T15:59:23;4.50;;;0.57;;
31206;SDS011;17834;52.992;8.856;2022-09-21T16:01:51;2.92;;;0.40;;
31206;SDS011;17834;52.992;8.856;2022-09-21T16:04:19;3.38;;;0.60;;
31206;SDS011;17834;52.992;8.856;2022-09-21T16:07:04;1.83;;;0.65;;
31206;SDS011;17834;52.992;8.856;2022-09-21T16:12:00;0.60;;;0.32;;
31206;SDS011;17834;52.992;8.856;2022-09-21T16:14:46;1.05;;;0.30;;
31206;SDS011;17834;52.992;8.856;2022-09-21T16:17:19;0.80;;;0.40;;
31206;SDS011;17834;52.992;8.856;2022-09-21T16:22:25;1.27;;;0.40;;
31206;SDS011;17834;52.992;8.856;2022-09-21T16:24:54;2.58;;;0.50;;
31206;SDS011;17834;52.992;8.856;2022-09-21T16:27:22;0.98;;;0.43;;
31206;SDS011;17834;52.992;8.856;2022-09-21T16:29:49;1.55;;;0.38;;
31206;SDS011;17834;52.992;8.856;2022-09-21T16:32:19;1.25;;;0.50;;
31206;SDS011;17834;52.992;8.856;2022-09-21T16:34:47;0.60;;;0.28;;
31206;SDS011;17834;52.992;8.856;2022-09-21T16:37:26;5.60;;;0.80;;
31206;SDS011;17834;52.992;8.856;2022-09-21T16:39:53;1.52;;;0.35;;
31206;SDS011;17834;52.992;8.856;2022-09-21T16:42:20;0.80;;;0.40;;
31206;SDS011;17834;52.992;8.856;2022-09-21T16:44:46;2.55;;;0.40;;
31206;SDS011;17834;52.992;8.856;2022-09-21T16:47:22;1.38;;;0.47;;
31206;SDS011;17834;52.992;8.856;2022-09-21T16:49:58;2.95;;;0.50;;
31206;SDS011;17834;52.992;8.856;2022-09-21T16:52:26;2.63;;;0.73;;
31206;SDS011;17834;52.992;8.856;2022-09-21T16:54:52;3.35;;;0.50;;
31206;SDS011;17834;52.992;8.856;2022-09-21T16:57:20;2.47;;;0.40;;
31206;SDS011;17834;52.992;8.856;2022-09-21T16:59:46;0.88;;;0.50;;
31206;SDS011;17834;52.992;8.856;2022-09-21T17:02:13;3.70;;;0.60;;
31206;SDS011;17834;52.992;8.856;2022-09-21T17:04:39;1.25;;;0.40;;
31206;SDS011;17834;52.992;8.856;2022-09-21T17:07:05;1.35;;;0.50;;
31206;SDS011;17834;52.992;8.856;2022-09-21T17:09:35;2.67;;;0.50;;
31206;SDS011;17834;52.992;8.856;2022-09-21T17:12:02;3.10;;;0.70;;
31206;SDS011;17834;52.992;8.856;2022-09-21T17:14:30;2.40;;;0.50;;
31206;SDS011;17834;52.992;8.856;2022-09-21T17:16:59;2.28;;;0.70;;
31206;SDS011;17834;52.992;8.856;2022-09-21T17:19:25;1.27;;;0.60;;